createdAt,value
2023-04-09T00:00:28.073Z,7.10
2023-04-09T00:02:55.672Z,7.12
2023-04-09T00:05:24.806Z,7.13
2023-04-09T00:07:52.374Z,7.13
2023-04-09T00:10:20.169Z,7.08
2023-04-09T00:12:47.707Z,7.09
2023-04-09T00:15:27.924Z,7.11
2023-04-09T00:17:58.716Z,7.13
2023-04-09T00:20:27.702Z,7.05
2023-04-09T00:22:56.219Z,7.07
2023-04-09T00:25:23.767Z,7.03
2023-04-09T00:27:51.403Z,7.06
2023-04-09T00:30:18.932Z,7.07
2023-04-09T00:32:46.682Z,7.06
2023-04-09T00:35:14.293Z,7.01
2023-04-09T00:37:43.171Z,7.03
2023-04-09T00:40:11.293Z,7.04
2023-04-09T00:42:39.028Z,7.02
2023-04-09T00:45:07.937Z,7.04
2023-04-09T00:47:36.462Z,7.00
2023-04-09T00:50:04.736Z,6.95
2023-04-09T00:52:33.645Z,6.96
2023-04-09T00:55:05.556Z,6.89
2023-04-09T00:57:33.141Z,6.87
2023-04-09T01:00:00.828Z,6.92
2023-04-09T01:02:30.767Z,6.94
2023-04-09T01:04:58.856Z,6.95
2023-04-09T01:07:37.569Z,6.98
2023-04-09T01:10:18.022Z,6.97
2023-04-09T01:12:58.988Z,6.90
2023-04-09T01:15:30.861Z,6.93
2023-04-09T01:18:06.232Z,6.98
2023-04-09T01:20:37.172Z,6.85
2023-04-09T01:23:20.664Z,6.82
2023-04-09T01:26:03.081Z,6.87
2023-04-09T01:28:44.309Z,6.81
2023-04-09T01:31:14.423Z,6.84
2023-04-09T01:33:42.867Z,6.87
2023-04-09T01:36:11.334Z,6.87
2023-04-09T01:38:42.324Z,6.89
2023-04-09T01:41:13.084Z,6.86
2023-04-09T01:43:43.065Z,6.88
2023-04-09T01:46:11.888Z,6.92
2023-04-09T01:48:40.265Z,6.92
2023-04-09T01:51:07.903Z,6.85
2023-04-09T01:53:35.546Z,6.85
2023-04-09T01:56:03.570Z,6.84
2023-04-09T01:58:33.995Z,6.85
2023-04-09T02:01:11.761Z,6.90
2023-04-09T02:03:43.012Z,6.91
2023-04-09T02:06:16.677Z,6.92
2023-04-09T02:08:47.424Z,6.91
2023-04-09T02:11:16.866Z,6.97
2023-04-09T02:13:45.657Z,6.88
2023-04-09T02:16:16.589Z,6.90
2023-04-09T02:18:44.497Z,6.86
2023-04-09T02:21:13.591Z,6.91
2023-04-09T02:23:41.219Z,6.91
2023-04-09T02:26:08.737Z,6.92
2023-04-09T02:28:36.307Z,6.98
2023-04-09T02:31:03.937Z,7.02
2023-04-09T02:33:32.962Z,6.96
2023-04-09T02:36:00.513Z,6.96
2023-04-09T02:38:28.318Z,6.93
2023-04-09T02:40:56.222Z,6.92
2023-04-09T02:43:23.949Z,6.98
2023-04-09T02:45:51.482Z,6.97
2023-04-09T02:48:18.994Z,6.97
2023-04-09T02:50:47.878Z,6.93
2023-04-09T02:53:15.405Z,6.94
2023-04-09T02:55:42.931Z,6.95
2023-04-09T02:58:10.578Z,6.97
2023-04-09T03:00:38.170Z,6.90
2023-04-09T03:03:06.376Z,6.88
2023-04-09T03:05:33.981Z,6.88
2023-04-09T03:08:02.917Z,6.88
2023-04-09T03:10:30.442Z,6.89
2023-04-09T03:12:57.980Z,6.96
2023-04-09T03:15:26.452Z,6.97
2023-04-09T03:17:54.045Z,6.96
2023-04-09T03:20:21.870Z,7.01
2023-04-09T03:22:49.440Z,6.96
2023-04-09T03:25:35.145Z,6.97
2023-04-09T03:28:11.217Z,6.94
2023-04-09T03:30:43.494Z,6.98
2023-04-09T03:33:11.023Z,6.98
2023-04-09T03:35:49.129Z,6.99
2023-04-09T03:38:19.496Z,6.99
2023-04-09T03:40:48.416Z,7.00
2023-04-09T03:43:16.074Z,6.95
2023-04-09T03:45:49.102Z,7.05
2023-04-09T03:48:22.589Z,7.03
2023-04-09T03:50:51.612Z,7.02
2023-04-09T03:53:26.344Z,7.01
2023-04-09T03:56:02.951Z,6.98
2023-04-09T03:58:30.916Z,6.97
2023-04-09T04:00:59.152Z,6.95
2023-04-09T04:03:35.746Z,6.90
2023-04-09T04:06:22.956Z,6.90
2023-04-09T04:08:58.128Z,6.91
2023-04-09T04:11:36.092Z,6.91
2023-04-09T04:14:03.659Z,6.95
2023-04-09T04:16:32.299Z,6.91
2023-04-09T04:19:00.641Z,6.90
2023-04-09T04:21:29.670Z,6.92
2023-04-09T04:24:01.613Z,6.87
2023-04-09T04:26:30.805Z,6.88
2023-04-09T04:28:59.783Z,6.87
2023-04-09T04:31:40.240Z,6.90
2023-04-09T04:34:07.920Z,6.91
2023-04-09T04:36:37.430Z,6.89
2023-04-09T04:39:05.806Z,6.87
2023-04-09T04:41:44.510Z,6.85
2023-04-09T04:44:21.621Z,6.84
2023-04-09T04:46:53.009Z,6.87
2023-04-09T04:49:20.581Z,6.83
2023-04-09T04:51:49.046Z,6.85
2023-04-09T04:54:17.839Z,6.82
2023-04-09T04:56:52.300Z,6.86
2023-04-09T04:59:32.974Z,6.88
2023-04-09T05:02:06.251Z,6.89
2023-04-09T05:04:41.366Z,6.83
2023-04-09T05:07:12.463Z,6.83
2023-04-09T05:09:48.060Z,6.85
2023-04-09T05:12:17.853Z,6.86
2023-04-09T05:14:50.590Z,6.88
2023-04-09T05:17:18.202Z,6.86
2023-04-09T05:19:52.070Z,6.87
2023-04-09T05:22:23.290Z,6.87
2023-04-09T05:24:51.388Z,6.89
2023-04-09T05:27:19.353Z,6.92
2023-04-09T05:29:51.082Z,6.91
2023-04-09T05:32:18.786Z,6.99
2023-04-09T05:34:46.695Z,6.95
2023-04-09T05:37:14.341Z,6.98
2023-04-09T05:39:43.092Z,7.01
2023-04-09T05:42:10.841Z,7.04
2023-04-09T05:44:45.360Z,7.03
2023-04-09T05:47:18.681Z,7.07
2023-04-09T05:50:07.496Z,7.11
2023-04-09T05:52:35.912Z,7.19
2023-04-09T05:55:05.473Z,7.16
2023-04-09T05:57:59.573Z,7.26
2023-04-09T06:00:27.655Z,7.26
2023-04-09T06:02:56.644Z,7.28
2023-04-09T06:05:24.258Z,7.36
2023-04-09T06:07:52.437Z,7.41
2023-04-09T06:10:20.202Z,7.39
2023-04-09T06:12:49.422Z,7.38
2023-04-09T06:15:17.225Z,7.38
2023-04-09T06:17:44.940Z,7.45
2023-04-09T06:20:13.951Z,7.44
2023-04-09T06:22:41.532Z,7.49
2023-04-09T06:25:09.494Z,7.54
2023-04-09T06:27:37.074Z,7.50
2023-04-09T06:30:05.149Z,7.54
2023-04-09T06:32:37.695Z,7.55
2023-04-09T06:35:11.237Z,7.52
2023-04-09T06:37:40.229Z,7.57
2023-04-09T06:40:09.081Z,7.65
2023-04-09T06:42:36.578Z,7.62
2023-04-09T06:45:27.445Z,7.66
2023-04-09T06:47:54.966Z,7.74
2023-04-09T06:50:22.570Z,7.79
2023-04-09T06:52:52.479Z,7.86
2023-04-09T06:55:20.326Z,7.88
2023-04-09T06:57:47.904Z,7.81
2023-04-09T07:00:16.329Z,7.71
2023-04-09T07:02:44.075Z,7.81
2023-04-09T07:05:11.956Z,7.83
2023-04-09T07:07:39.548Z,7.76
2023-04-09T07:10:09.769Z,7.77
2023-04-09T07:12:37.314Z,7.80
2023-04-09T07:15:07.030Z,7.85
2023-04-09T07:17:35.428Z,7.80
2023-04-09T07:20:03.585Z,7.81
2023-04-09T07:22:31.755Z,7.90
2023-04-09T07:24:59.580Z,7.96
2023-04-09T07:27:29.541Z,7.98
2023-04-09T07:29:57.978Z,7.88
2023-04-09T07:32:26.736Z,7.98
2023-04-09T07:34:54.819Z,8.05
2023-04-09T07:37:22.798Z,8.08
2023-04-09T07:39:51.211Z,8.11
2023-04-09T07:42:18.998Z,8.16
2023-04-09T07:44:47.909Z,8.20
2023-04-09T07:47:15.933Z,8.26
2023-04-09T07:49:43.540Z,8.32
2023-04-09T07:52:11.395Z,8.38
2023-04-09T07:54:38.965Z,8.49
2023-04-09T07:57:06.705Z,8.54
2023-04-09T07:59:36.209Z,8.63
2023-04-09T08:02:05.505Z,8.65
2023-04-09T08:04:33.250Z,8.67
2023-04-09T08:07:00.879Z,8.63
2023-04-09T08:09:28.458Z,8.73
2023-04-09T08:11:56.097Z,8.88
2023-04-09T08:14:23.738Z,8.72
2023-04-09T08:16:51.358Z,8.87
2023-04-09T08:19:20.493Z,8.83
2023-04-09T08:21:49.530Z,8.95
2023-04-09T08:24:17.386Z,8.76
2023-04-09T08:26:45.350Z,8.85
2023-04-09T08:29:14.426Z,8.82
2023-04-09T08:31:42.951Z,8.76
2023-04-09T08:34:10.570Z,8.83
2023-04-09T08:36:39.617Z,8.92
2023-04-09T08:39:07.177Z,8.93
2023-04-09T08:41:36.096Z,8.96
2023-04-09T08:44:03.630Z,8.95
2023-04-09T08:46:31.216Z,8.97
2023-04-09T08:48:58.966Z,9.03
2023-04-09T08:51:26.793Z,9.04
2023-04-09T08:53:58.040Z,9.06
2023-04-09T08:56:26.034Z,8.96
2023-04-09T08:58:54.746Z,9.00
2023-04-09T09:01:24.184Z,9.01
2023-04-09T09:04:01.390Z,8.84
2023-04-09T09:06:32.655Z,8.95
2023-04-09T09:09:07.033Z,8.90
2023-04-09T09:11:35.694Z,8.91
2023-04-09T09:14:04.618Z,8.89
2023-04-09T09:16:34.641Z,8.82
2023-04-09T09:19:02.832Z,8.84
2023-04-09T09:21:31.138Z,8.79
2023-04-09T09:23:59.034Z,8.80
2023-04-09T09:26:30.118Z,8.83
2023-04-09T09:28:59.245Z,8.86
2023-04-09T09:31:27.284Z,8.82
2023-04-09T09:33:55.437Z,8.90
2023-04-09T09:36:33.026Z,8.84
2023-04-09T09:39:03.838Z,8.92
2023-04-09T09:41:32.800Z,8.98
2023-04-09T09:44:00.417Z,9.07
2023-04-09T09:46:28.453Z,9.13
2023-04-09T09:48:57.223Z,9.18
2023-04-09T09:51:28.737Z,9.13
2023-04-09T09:53:57.954Z,9.25
2023-04-09T09:56:32.405Z,9.28
2023-04-09T09:59:08.407Z,9.33
2023-04-09T10:01:36.760Z,9.36
2023-04-09T10:04:07.416Z,9.38
2023-04-09T10:06:35.623Z,9.44
2023-04-09T10:09:06.729Z,9.60
2023-04-09T10:11:36.281Z,9.62
2023-04-09T10:14:06.142Z,9.64
2023-04-09T10:16:35.410Z,9.69
2023-04-09T10:19:03.514Z,9.68
2023-04-09T10:21:41.667Z,9.65
2023-04-09T10:24:11.404Z,9.63
2023-04-09T10:26:42.057Z,9.58
2023-04-09T10:29:14.348Z,9.59
2023-04-09T10:31:52.194Z,9.46
2023-04-09T10:34:22.430Z,9.39
2023-04-09T10:36:56.657Z,9.36
2023-04-09T10:39:27.810Z,9.32
2023-04-09T10:41:57.116Z,9.31
2023-04-09T10:44:27.421Z,9.27
2023-04-09T10:46:55.598Z,9.32
2023-04-09T10:49:24.820Z,9.42
2023-04-09T10:51:54.105Z,9.47
2023-04-09T10:54:47.518Z,9.55
2023-04-09T10:57:20.696Z,9.60
2023-04-09T10:59:51.203Z,9.52
2023-04-09T11:02:49.794Z,9.61
2023-04-09T11:05:22.779Z,9.60
2023-04-09T11:07:55.736Z,9.57
2023-04-09T11:10:23.313Z,9.65
2023-04-09T11:12:51.006Z,9.73
2023-04-09T11:15:21.064Z,9.76
2023-04-09T11:17:49.715Z,9.79
2023-04-09T11:20:20.378Z,9.82
2023-04-09T11:22:48.434Z,9.92
2023-04-09T11:25:20.590Z,9.92
2023-04-09T11:27:48.189Z,9.97
2023-04-09T11:30:16.112Z,10.03
2023-04-09T11:32:45.428Z,10.21
2023-04-09T11:35:15.025Z,10.29
2023-04-09T11:37:44.361Z,10.38
2023-04-09T11:40:19.394Z,10.31
2023-04-09T11:42:49.718Z,10.41
2023-04-09T11:45:18.016Z,10.51
2023-04-09T11:47:47.693Z,10.67
2023-04-09T11:50:16.318Z,10.88
2023-04-09T11:52:44.289Z,11.08
2023-04-09T11:55:12.464Z,11.11
2023-04-09T11:57:44.203Z,11.30
2023-04-09T12:00:13.381Z,11.63
2023-04-09T12:02:46.288Z,11.86
2023-04-09T12:05:22.991Z,11.77
2023-04-09T12:07:56.454Z,11.78
2023-04-09T12:10:28.223Z,12.00
2023-04-09T12:12:56.268Z,12.30
2023-04-09T12:15:25.538Z,12.43
2023-04-09T12:17:55.963Z,12.05
2023-04-09T12:20:32.668Z,12.10
2023-04-09T12:23:03.364Z,12.12
2023-04-09T12:25:32.115Z,11.90
2023-04-09T12:27:59.740Z,11.87
2023-04-09T12:30:27.462Z,12.35
2023-04-09T12:32:55.529Z,11.91
2023-04-09T12:35:23.872Z,12.00
2023-04-09T12:37:52.900Z,11.87
2023-04-09T12:40:21.204Z,12.23
2023-04-09T12:42:49.313Z,12.43
2023-04-09T12:45:18.252Z,12.86
2023-04-09T12:47:46.621Z,13.08
2023-04-09T12:50:16.035Z,12.68
2023-04-09T12:52:44.424Z,12.91
2023-04-09T12:55:14.475Z,12.93
2023-04-09T12:57:44.959Z,12.81
2023-04-09T13:00:13.766Z,12.79
2023-04-09T13:02:41.639Z,12.79
2023-04-09T13:05:09.769Z,12.81
2023-04-09T13:07:37.430Z,12.76
2023-04-09T13:10:05.528Z,12.79
2023-04-09T13:12:34.607Z,12.96
2023-04-09T13:15:02.143Z,12.93
2023-04-09T13:17:29.744Z,13.03
2023-04-09T13:19:57.285Z,13.27
2023-04-09T13:22:24.894Z,13.36
2023-04-09T13:24:52.545Z,13.22
2023-04-09T13:27:20.652Z,13.52
2023-04-09T13:29:49.550Z,13.25
2023-04-09T13:32:18.257Z,13.57
2023-04-09T13:34:45.988Z,13.76
2023-04-09T13:37:13.758Z,13.70
2023-04-09T13:39:41.285Z,13.82
2023-04-09T13:42:13.579Z,14.12
2023-04-09T13:44:44.605Z,14.13
2023-04-09T13:47:14.133Z,13.99
2023-04-09T13:49:41.923Z,13.74
2023-04-09T13:52:09.705Z,13.49
2023-04-09T13:54:38.327Z,13.70
2023-04-09T13:57:05.940Z,13.87
2023-04-09T13:59:33.681Z,14.19
2023-04-09T14:02:01.297Z,14.30
2023-04-09T14:04:30.536Z,14.37
2023-04-09T14:06:58.242Z,14.58
2023-04-09T14:09:25.840Z,14.67
2023-04-09T14:11:54.673Z,14.47
2023-04-09T14:14:22.249Z,13.99
2023-04-09T14:16:50.340Z,14.17
2023-04-09T14:19:18.026Z,13.93
2023-04-09T14:21:47.116Z,13.78
2023-04-09T14:24:14.726Z,13.67
2023-04-09T14:26:42.424Z,13.85
2023-04-09T14:29:09.977Z,13.75
2023-04-09T14:31:37.604Z,14.01
2023-04-09T14:34:05.277Z,13.74
2023-04-09T14:36:32.878Z,14.00
2023-04-09T14:39:01.719Z,14.26
2023-04-09T14:41:29.275Z,14.39
2023-04-09T14:43:56.824Z,14.60
2023-04-09T14:46:24.428Z,14.24
2023-04-09T14:48:52.215Z,14.14
2023-04-09T14:51:19.925Z,14.08
2023-04-09T14:53:47.457Z,14.24
2023-04-09T14:56:16.854Z,14.45
2023-04-09T14:58:44.494Z,14.22
2023-04-09T15:01:12.261Z,14.20
2023-04-09T15:03:41.967Z,14.23
2023-04-09T15:06:09.655Z,14.15
2023-04-09T15:08:37.270Z,14.06
2023-04-09T15:11:05.324Z,13.95
2023-04-09T15:13:34.432Z,13.99
2023-04-09T15:16:02.170Z,14.15
2023-04-09T15:18:29.862Z,14.17
2023-04-09T15:20:57.388Z,14.26
2023-04-09T15:23:24.984Z,14.24
2023-04-09T15:25:52.576Z,14.42
2023-04-09T15:28:20.402Z,14.12
2023-04-09T15:30:49.357Z,14.09
2023-04-09T15:33:16.858Z,14.10
2023-04-09T15:35:44.482Z,13.96
2023-04-09T15:38:11.998Z,14.18
2023-04-09T15:40:41.380Z,13.92
2023-04-09T15:43:09.539Z,13.95
2023-04-09T15:45:37.198Z,13.97
2023-04-09T15:48:10.384Z,13.91
2023-04-09T15:50:38.330Z,13.85
2023-04-09T15:53:06.419Z,13.81
2023-04-09T15:55:33.986Z,13.81
2023-04-09T15:58:01.576Z,13.90
2023-04-09T16:00:29.162Z,13.96
2023-04-09T16:02:56.686Z,13.89
2023-04-09T16:05:26.178Z,13.89
2023-04-09T16:07:53.894Z,13.76
2023-04-09T16:10:21.400Z,13.69
2023-04-09T16:12:49.031Z,13.68
2023-04-09T16:15:16.741Z,13.66
2023-04-09T16:17:44.340Z,13.48
2023-04-09T16:20:12.126Z,13.51
2023-04-09T16:22:41.156Z,13.55
2023-04-09T16:25:09.579Z,13.63
2023-04-09T16:27:37.180Z,13.80
2023-04-09T16:30:05.281Z,14.01
2023-04-09T16:32:32.836Z,14.18
2023-04-09T16:35:00.803Z,14.08
2023-04-09T16:37:29.170Z,14.19
2023-04-09T16:39:58.386Z,14.34
2023-04-09T16:42:27.285Z,14.12
2023-04-09T16:44:55.297Z,14.09
2023-04-09T16:47:22.932Z,13.99
2023-04-09T16:49:50.484Z,14.05
2023-04-09T16:52:18.073Z,13.92
2023-04-09T16:54:45.686Z,14.20
2023-04-09T16:57:14.636Z,14.08
2023-04-09T16:59:42.892Z,13.98
2023-04-09T17:02:10.498Z,13.96
2023-04-09T17:04:38.293Z,13.90
2023-04-09T17:07:05.909Z,13.67
2023-04-09T17:09:33.416Z,13.78
2023-04-09T17:12:00.979Z,13.64
2023-04-09T17:14:29.949Z,13.48
2023-04-09T17:16:57.582Z,13.35
2023-04-09T17:19:25.471Z,13.36
2023-04-09T17:21:53.053Z,13.30
2023-04-09T17:24:20.588Z,13.22
2023-04-09T17:26:48.169Z,13.32
2023-04-09T17:29:16.506Z,13.45
2023-04-09T17:31:45.546Z,13.24
2023-04-09T17:34:14.462Z,13.02
2023-04-09T17:36:42.347Z,12.69
2023-04-09T17:39:09.920Z,12.43
2023-04-09T17:41:37.611Z,12.20
2023-04-09T17:44:05.470Z,12.02
2023-04-09T17:46:33.063Z,11.72
2023-04-09T17:49:01.953Z,11.60
2023-04-09T17:51:29.721Z,11.46
2023-04-09T17:53:57.250Z,11.41
2023-04-09T17:56:25.140Z,11.27
2023-04-09T17:58:52.899Z,11.06
2023-04-09T18:01:21.128Z,11.00
2023-04-09T18:03:49.350Z,10.89
2023-04-09T18:06:18.578Z,10.90
2023-04-09T18:08:46.082Z,10.82
2023-04-09T18:11:15.417Z,10.71
2023-04-09T18:13:43.026Z,10.68
2023-04-09T18:16:11.183Z,10.61
2023-04-09T18:18:38.905Z,10.42
2023-04-09T18:21:07.064Z,10.47
2023-04-09T18:23:36.053Z,10.36
2023-04-09T18:26:03.587Z,10.24
2023-04-09T18:28:31.194Z,10.22
2023-04-09T18:30:58.955Z,10.12
2023-04-09T18:33:27.007Z,10.07
2023-04-09T18:35:54.630Z,10.03
2023-04-09T18:38:22.678Z,9.89
2023-04-09T18:40:51.607Z,9.86
2023-04-09T18:43:19.212Z,9.84
2023-04-09T18:45:47.101Z,9.83
2023-04-09T18:48:14.943Z,9.76
2023-04-09T18:50:42.599Z,9.73
2023-04-09T18:53:10.945Z,9.67
2023-04-09T18:55:38.571Z,9.61
2023-04-09T18:58:12.461Z,9.62
2023-04-09T19:00:40.593Z,9.47
2023-04-09T19:03:08.519Z,9.42
2023-04-09T19:05:36.542Z,9.31
2023-04-09T19:08:06.650Z,9.35
2023-04-09T19:10:34.383Z,9.34
2023-04-09T19:13:01.942Z,9.32
2023-04-09T19:15:31.094Z,9.34
2023-04-09T19:17:58.817Z,9.23
2023-04-09T19:20:26.534Z,9.27
2023-04-09T19:22:54.688Z,9.20
2023-04-09T19:25:22.621Z,9.22
2023-04-09T19:27:50.295Z,9.17
2023-04-09T19:30:17.865Z,9.10
2023-04-09T19:32:46.792Z,9.09
2023-04-09T19:35:14.344Z,8.97
2023-04-09T19:37:42.505Z,8.97
2023-04-09T19:40:10.813Z,8.89
2023-04-09T19:42:38.349Z,8.91
2023-04-09T19:45:06.745Z,8.80
2023-04-09T19:47:34.705Z,8.78
2023-04-09T19:50:03.788Z,8.79
2023-04-09T19:52:31.683Z,8.74
2023-04-09T19:54:59.276Z,8.72
2023-04-09T19:57:27.069Z,8.66
2023-04-09T19:59:55.023Z,8.67
2023-04-09T20:02:23.708Z,8.65
2023-04-09T20:04:52.171Z,8.63
2023-04-09T20:07:21.189Z,8.52
2023-04-09T20:09:49.516Z,8.49
2023-04-09T20:12:17.038Z,8.46
2023-04-09T20:14:45.778Z,8.39
2023-04-09T20:17:13.417Z,8.35
2023-04-09T20:19:40.999Z,8.27
2023-04-09T20:22:08.564Z,8.21
2023-04-09T20:24:38.222Z,8.23
2023-04-09T20:27:05.834Z,8.23
2023-04-09T20:29:33.782Z,8.23
2023-04-09T20:32:01.334Z,8.19
2023-04-09T20:34:28.963Z,8.11
2023-04-09T20:36:56.664Z,8.09
2023-04-09T20:39:26.645Z,8.09
2023-04-09T20:41:56.541Z,8.03
2023-04-09T20:44:24.382Z,8.03
2023-04-09T20:46:52.050Z,7.95
2023-04-09T20:49:19.613Z,7.92
2023-04-09T20:51:47.488Z,7.92
2023-04-09T20:54:17.800Z,7.90
2023-04-09T20:56:45.529Z,7.90
2023-04-09T20:59:14.539Z,7.81
2023-04-09T21:01:42.124Z,7.80
2023-04-09T21:04:09.793Z,7.73
2023-04-09T21:06:37.396Z,7.75
2023-04-09T21:09:05.301Z,7.70
2023-04-09T21:11:32.896Z,7.68
2023-04-09T21:14:00.666Z,7.66
2023-04-09T21:16:30.823Z,7.61
2023-04-09T21:18:58.374Z,7.63
2023-04-09T21:21:27.294Z,7.61
2023-04-09T21:23:54.981Z,7.55
2023-04-09T21:26:22.499Z,7.56
2023-04-09T21:28:50.867Z,7.55
2023-04-09T21:31:18.638Z,7.47
2023-04-09T21:33:47.609Z,7.47
2023-04-09T21:36:15.573Z,7.37
2023-04-09T21:38:43.162Z,7.38
2023-04-09T21:41:10.918Z,7.42
2023-04-09T21:43:39.121Z,7.33
2023-04-09T21:46:06.723Z,7.34
2023-04-09T21:48:34.317Z,7.31
2023-04-09T21:51:03.534Z,7.29
2023-04-09T21:53:31.667Z,7.26
2023-04-09T21:55:59.228Z,7.21
2023-04-09T21:58:26.773Z,7.14
2023-04-09T22:00:54.291Z,7.17
2023-04-09T22:03:22.351Z,7.17
2023-04-09T22:05:50.210Z,7.16
2023-04-09T22:08:19.130Z,7.21
2023-04-09T22:10:47.371Z,7.13
2023-04-09T22:13:14.912Z,7.18
2023-04-09T22:15:42.686Z,7.17
2023-04-09T22:18:10.308Z,7.14
2023-04-09T22:20:37.814Z,7.16
2023-04-09T22:23:05.594Z,7.14
2023-04-09T22:25:35.238Z,7.11
2023-04-09T22:28:05.645Z,7.19
2023-04-09T22:30:33.173Z,7.12
2023-04-09T22:33:01.895Z,7.16
2023-04-09T22:35:29.726Z,7.15
2023-04-09T22:37:57.270Z,7.20
2023-04-09T22:40:24.817Z,7.20
2023-04-09T22:42:53.719Z,7.18
2023-04-09T22:45:21.558Z,7.14
2023-04-09T22:47:49.223Z,7.17
2023-04-09T22:50:16.974Z,7.14
2023-04-09T22:52:44.490Z,7.10
2023-04-09T22:55:13.516Z,7.11
2023-04-09T22:57:42.839Z,7.07
2023-04-09T23:00:12.692Z,7.09
2023-04-09T23:02:40.765Z,7.10
2023-04-09T23:05:09.505Z,7.10
2023-04-09T23:07:37.093Z,7.10
2023-04-09T23:10:04.899Z,7.11
2023-04-09T23:12:32.448Z,7.07
2023-04-09T23:15:00.140Z,7.11
2023-04-09T23:17:29.013Z,7.12
2023-04-09T23:19:56.783Z,7.10
2023-04-09T23:22:26.195Z,7.10
2023-04-09T23:24:53.956Z,7.09
2023-04-09T23:27:28.019Z,7.06
2023-04-09T23:29:56.115Z,7.09
2023-04-09T23:32:23.938Z,7.10
2023-04-09T23:34:52.930Z,6.97
2023-04-09T23:37:20.567Z,6.87
2023-04-09T23:39:48.485Z,6.86
2023-04-09T23:42:16.000Z,6.90
2023-04-09T23:44:44.720Z,6.87
2023-04-09T23:47:13.656Z,6.81
2023-04-09T23:49:43.375Z,6.84
2023-04-09T23:52:12.246Z,6.84
2023-04-09T23:54:39.821Z,6.89
2023-04-09T23:57:07.464Z,6.89
2023-04-09T23:59:35.908Z,6.92
